sensor_id;sensor_type;location;lat;lon;timestamp;pressure;altitude;pressure_sealevel;temperature;humidity
44663;BME280;30381;52.754;18.258;2023-02-12T00:02:18;102217.61;;;0.73;100.00
44663;BME280;30381;52.754;18.258;2023-02-12T00:04:47;102218.54;;;0.68;100.00
44663;BME280;30381;52.754;18.258;2023-02-12T00:07:14;102225.16;;;0.64;100.00
44663;BME280;30381;52.754;18.258;2023-02-12T00:09:43;102224.59;;;0.58;100.00
44663;BME280;30381;52.754;18.258;2023-02-12T00:12:12;102222.56;;;0.51;100.00
44663;BME280;30381;52.754;18.258;2023-02-12T00:14:40;102227.23;;;0.44;100.00
44663;BME280;30381;52.754;18.258;2023-02-12T00:17:07;102231.27;;;0.36;100.00
44663;BME280;30381;52.754;18.258;2023-02-12T00:19:36;102238.30;;;0.31;100.00
44663;BME280;30381;52.754;18.258;2023-02-12T00:22:04;102238.06;;;0.23;100.00
44663;BME280;30381;52.754;18.258;2023-02-12T00:24:50;102240.60;;;0.16;100.00
44663;BME280;30381;52.754;18.258;2023-02-12T00:27:17;102249.64;;;0.08;100.00
44663;BME280;30381;52.754;18.258;2023-02-12T00:29:47;102250.76;;;0.03;100.00
44663;BME280;30381;52.754;18.258;2023-02-12T00:32:14;102253.81;;;-0.04;100.00
44663;BME280;30381;52.754;18.258;2023-02-12T00:34:46;102257.72;;;-0.11;100.00
44663;BME280;30381;52.754;18.258;2023-02-12T00:37:12;102259.48;;;-0.17;100.00
44663;BME280;30381;52.754;18.258;2023-02-12T00:39:42;102269.95;;;-0.21;100.00
44663;BME280;30381;52.754;18.258;2023-02-12T00:42:10;102282.85;;;-0.25;100.00
44663;BME280;30381;52.754;18.258;2023-02-12T00:44:43;102291.28;;;-0.28;100.00
44663;BME280;30381;52.754;18.258;2023-02-12T00:47:15;102289.48;;;-0.30;100.00
44663;BME280;30381;52.754;18.258;2023-02-12T00:49:42;102291.73;;;-0.31;100.00
44663;BME280;30381;52.754;18.258;2023-02-12T00:52:08;102291.52;;;-0.33;100.00
44663;BME280;30381;52.754;18.258;2023-02-12T00:54:39;102299.77;;;-0.34;100.00
44663;BME280;30381;52.754;18.258;2023-02-12T00:57:09;102303.34;;;-0.34;100.00
44663;BME280;30381;52.754;18.258;2023-02-12T00:59:38;102302.92;;;-0.34;100.00
44663;BME280;30381;52.754;18.258;2023-02-12T01:02:08;102305.02;;;-0.36;100.00
44663;BME280;30381;52.754;18.258;2023-02-12T01:04:40;102307.40;;;-0.39;100.00
44663;BME280;30381;52.754;18.258;2023-02-12T01:07:08;102316.72;;;-0.42;100.00
44663;BME280;30381;52.754;18.258;2023-02-12T01:09:35;102316.55;;;-0.47;100.00
44663;BME280;30381;52.754;18.258;2023-02-12T01:12:02;102319.55;;;-0.51;100.00
44663;BME280;30381;52.754;18.258;2023-02-12T01:14:28;102316.73;;;-0.56;100.00
44663;BME280;30381;52.754;18.258;2023-02-12T01:20:09;102323.81;;;-0.67;100.00
44663;BME280;30381;52.754;18.258;2023-02-12T01:22:37;102323.63;;;-0.71;100.00
44663;BME280;30381;52.754;18.258;2023-02-12T01:25:09;102322.30;;;-0.76;100.00
44663;BME280;30381;52.754;18.258;2023-02-12T01:27:38;102325.88;;;-0.81;100.00
44663;BME280;30381;52.754;18.258;2023-02-12T01:30:13;102337.15;;;-0.85;100.00
44663;BME280;30381;52.754;18.258;2023-02-12T01:32:41;102342.61;;;-0.89;100.00
44663;BME280;30381;52.754;18.258;2023-02-12T01:35:12;102348.41;;;-0.93;100.00
44663;BME280;30381;52.754;18.258;2023-02-12T01:37:41;102350.66;;;-0.95;100.00
44663;BME280;30381;52.754;18.258;2023-02-12T01:43:17;102353.07;;;-0.98;100.00
44663;BME280;30381;52.754;18.258;2023-02-12T01:45:50;102362.01;;;-0.99;100.00
44663;BME280;30381;52.754;18.258;2023-02-12T01:48:34;102368.16;;;-1.01;100.00
44663;BME280;30381;52.754;18.258;2023-02-12T01:51:32;102370.30;;;-1.04;100.00
44663;BME280;30381;52.754;18.258;2023-02-12T01:57:37;102373.89;;;-1.09;100.00
44663;BME280;30381;52.754;18.258;2023-02-12T02:00:35;102374.11;;;-1.11;100.00
44663;BME280;30381;52.754;18.258;2023-02-12T02:03:02;102368.07;;;-1.13;100.00
44663;BME280;30381;52.754;18.258;2023-02-12T02:08:09;102368.59;;;-1.25;100.00
44663;BME280;30381;52.754;18.258;2023-02-12T02:10:44;102367.77;;;-1.30;100.00
44663;BME280;30381;52.754;18.258;2023-02-12T02:13:31;102373.61;;;-1.35;100.00
44663;BME280;30381;52.754;18.258;2023-02-12T02:16:36;102374.70;;;-1.40;100.00
44663;BME280;30381;52.754;18.258;2023-02-12T02:31:44;102385.55;;;-1.62;100.00
44663;BME280;30381;52.754;18.258;2023-02-12T02:35:04;102393.49;;;-1.71;100.00
44663;BME280;30381;52.754;18.258;2023-02-12T02:38:16;102390.62;;;-1.77;100.00
44663;BME280;30381;52.754;18.258;2023-02-12T02:51:40;102408.52;;;-1.97;100.00
44663;BME280;30381;52.754;18.258;2023-02-12T02:54:39;102415.02;;;-2.01;100.00
44663;BME280;30381;52.754;18.258;2023-02-12T03:01:47;102425.95;;;-2.13;100.00
44663;BME280;30381;52.754;18.258;2023-02-12T03:04:20;102427.81;;;-2.17;100.00
44663;BME280;30381;52.754;18.258;2023-02-12T03:07:33;102434.36;;;-2.20;100.00
44663;BME280;30381;52.754;18.258;2023-02-12T03:10:17;102432.11;;;-2.25;100.00
44663;BME280;30381;52.754;18.258;2023-02-12T03:15:18;102444.59;;;-2.29;100.00
44663;BME280;30381;52.754;18.258;2023-02-12T03:18:15;102449.96;;;-2.33;100.00
44663;BME280;30381;52.754;18.258;2023-02-12T03:20:49;102455.64;;;-2.35;100.00
44663;BME280;30381;52.754;18.258;2023-02-12T03:23:39;102460.60;;;-2.38;100.00
44663;BME280;30381;52.754;18.258;2023-02-12T03:26:14;102463.40;;;-2.41;100.00
44663;BME280;30381;52.754;18.258;2023-02-12T03:28:47;102463.27;;;-2.41;100.00
44663;BME280;30381;52.754;18.258;2023-02-12T03:34:33;102468.97;;;-2.44;100.00
44663;BME280;30381;52.754;18.258;2023-02-12T03:37:20;102473.19;;;-2.47;100.00
44663;BME280;30381;52.754;18.258;2023-02-12T03:45:35;102494.73;;;-2.54;100.00
44663;BME280;30381;52.754;18.258;2023-02-12T03:50:52;102494.02;;;-2.57;100.00
44663;BME280;30381;52.754;18.258;2023-02-12T03:53:20;102496.83;;;-2.56;100.00
44663;BME280;30381;52.754;18.258;2023-02-12T03:55:53;102506.74;;;-2.56;100.00
44663;BME280;30381;52.754;18.258;2023-02-12T03:58:28;102507.82;;;-2.57;100.00
44663;BME280;30381;52.754;18.258;2023-02-12T04:00:59;102515.10;;;-2.57;100.00
44663;BME280;30381;52.754;18.258;2023-02-12T04:03:29;102516.13;;;-2.59;100.00
44663;BME280;30381;52.754;18.258;2023-02-12T04:05:56;102515.35;;;-2.61;100.00
44663;BME280;30381;52.754;18.258;2023-02-12T04:08:24;102520.47;;;-2.64;100.00
44663;BME280;30381;52.754;18.258;2023-02-12T04:19:45;102530.23;;;-2.72;100.00
44663;BME280;30381;52.754;18.258;2023-02-12T04:22:35;102531.66;;;-2.69;100.00
44663;BME280;30381;52.754;18.258;2023-02-12T04:25:50;102536.58;;;-2.69;100.00
44663;BME280;30381;52.754;18.258;2023-02-12T04:31:16;102544.97;;;-2.76;100.00
44663;BME280;30381;52.754;18.258;2023-02-12T05:38:48;102605.33;;;-3.19;100.00
44663;BME280;30381;52.754;18.258;2023-02-12T05:41:46;102614.54;;;-3.22;100.00
44663;BME280;30381;52.754;18.258;2023-02-12T05:45:20;102609.66;;;-3.25;100.00
44663;BME280;30381;52.754;18.258;2023-02-12T05:48:09;102609.00;;;-3.29;100.00
44663;BME280;30381;52.754;18.258;2023-02-12T05:50:39;102610.75;;;-3.31;100.00
44663;BME280;30381;52.754;18.258;2023-02-12T05:53:13;102620.63;;;-3.34;100.00
44663;BME280;30381;52.754;18.258;2023-02-12T05:55:42;102624.98;;;-3.36;100.00
44663;BME280;30381;52.754;18.258;2023-02-12T05:58:20;102630.46;;;-3.36;100.00
44663;BME280;30381;52.754;18.258;2023-02-12T06:01:36;102633.13;;;-3.36;100.00
44663;BME280;30381;52.754;18.258;2023-02-12T06:07:21;102639.58;;;-3.35;100.00
44663;BME280;30381;52.754;18.258;2023-02-12T06:13:42;102655.32;;;-3.36;100.00
44663;BME280;30381;52.754;18.258;2023-02-12T06:20:19;102666.98;;;-3.36;100.00
44663;BME280;30381;52.754;18.258;2023-02-12T06:26:47;102675.06;;;-3.36;100.00
44663;BME280;30381;52.754;18.258;2023-02-12T06:29:18;102684.86;;;-3.32;100.00
44663;BME280;30381;52.754;18.258;2023-02-12T06:32:34;102685.48;;;-3.28;100.00
44663;BME280;30381;52.754;18.258;2023-02-12T06:35:14;102686.45;;;-3.23;100.00
44663;BME280;30381;52.754;18.258;2023-02-12T06:37:48;102689.97;;;-3.18;100.00
44663;BME280;30381;52.754;18.258;2023-02-12T06:40:47;102692.59;;;-3.12;100.00
44663;BME280;30381;52.754;18.258;2023-02-12T06:43:41;102686.42;;;-3.07;100.00
44663;BME280;30381;52.754;18.258;2023-02-12T06:46:15;102692.58;;;-3.03;100.00
44663;BME280;30381;52.754;18.258;2023-02-12T06:48:43;102691.72;;;-2.98;100.00
44663;BME280;30381;52.754;18.258;2023-02-12T06:51:16;102689.98;;;-2.93;100.00
44663;BME280;30381;52.754;18.258;2023-02-12T06:54:22;102692.11;;;-2.83;100.00
44663;BME280;30381;52.754;18.258;2023-02-12T06:57:16;102688.11;;;-2.73;100.00
44663;BME280;30381;52.754;18.258;2023-02-12T07:04:19;102694.02;;;-2.47;100.00
44663;BME280;30381;52.754;18.258;2023-02-12T07:16:10;102705.70;;;-1.98;100.00
44663;BME280;30381;52.754;18.258;2023-02-12T07:52:08;102749.51;;;-0.46;100.00
44663;BME280;30381;52.754;18.258;2023-02-12T07:55:27;102738.94;;;-0.27;100.00
44663;BME280;30381;52.754;18.258;2023-02-12T07:57:56;102738.21;;;-0.16;100.00
44663;BME280;30381;52.754;18.258;2023-02-12T08:00:25;102743.37;;;-0.04;100.00
44663;BME280;30381;52.754;18.258;2023-02-12T08:02:52;102740.33;;;0.06;100.00
44663;BME280;30381;52.754;18.258;2023-02-12T08:05:19;102744.86;;;0.13;100.00
44663;BME280;30381;52.754;18.258;2023-02-12T08:07:46;102748.38;;;0.23;100.00
44663;BME280;30381;52.754;18.258;2023-02-12T08:10:12;102745.34;;;0.32;100.00
44663;BME280;30381;52.754;18.258;2023-02-12T08:12:39;102742.52;;;0.41;100.00
44663;BME280;30381;52.754;18.258;2023-02-12T08:15:07;102745.21;;;0.50;100.00
44663;BME280;30381;52.754;18.258;2023-02-12T08:17:33;102749.60;;;0.60;100.00
44663;BME280;30381;52.754;18.258;2023-02-12T08:19:59;102745.37;;;0.68;100.00
44663;BME280;30381;52.754;18.258;2023-02-12T08:22:25;102745.73;;;0.77;100.00
44663;BME280;30381;52.754;18.258;2023-02-12T08:24:51;102747.00;;;0.88;100.00
44663;BME280;30381;52.754;18.258;2023-02-12T08:27:18;102747.65;;;1.00;100.00
44663;BME280;30381;52.754;18.258;2023-02-12T08:29:44;102747.67;;;1.11;100.00
44663;BME280;30381;52.754;18.258;2023-02-12T08:32:10;102753.70;;;1.22;100.00
44663;BME280;30381;52.754;18.258;2023-02-12T08:34:38;102750.64;;;1.33;100.00
44663;BME280;30381;52.754;18.258;2023-02-12T08:37:05;102746.77;;;1.42;100.00
44663;BME280;30381;52.754;18.258;2023-02-12T08:39:31;102745.97;;;1.47;100.00
44663;BME280;30381;52.754;18.258;2023-02-12T08:41:58;102745.52;;;1.52;100.00
44663;BME280;30381;52.754;18.258;2023-02-12T08:44:26;102746.23;;;1.56;100.00
44663;BME280;30381;52.754;18.258;2023-02-12T08:46:53;102742.52;;;1.61;100.00
44663;BME280;30381;52.754;18.258;2023-02-12T08:49:23;102746.70;;;1.64;100.00
44663;BME280;30381;52.754;18.258;2023-02-12T08:51:52;102741.05;;;1.67;100.00
44663;BME280;30381;52.754;18.258;2023-02-12T08:54:24;102743.86;;;1.70;100.00
44663;BME280;30381;52.754;18.258;2023-02-12T08:56:56;102746.98;;;1.73;100.00
44663;BME280;30381;52.754;18.258;2023-02-12T08:59:23;102750.23;;;1.79;100.00
44663;BME280;30381;52.754;18.258;2023-02-12T09:02:08;102756.98;;;1.85;100.00
44663;BME280;30381;52.754;18.258;2023-02-12T09:08:39;102759.10;;;2.07;100.00
44663;BME280;30381;52.754;18.258;2023-02-12T09:11:11;102763.28;;;2.18;100.00
44663;BME280;30381;52.754;18.258;2023-02-12T09:14:09;102764.06;;;2.34;100.00
44663;BME280;30381;52.754;18.258;2023-02-12T09:16:48;102765.23;;;2.55;100.00
44663;BME280;30381;52.754;18.258;2023-02-12T09:19:25;102763.09;;;2.68;100.00
44663;BME280;30381;52.754;18.258;2023-02-12T09:21:54;102770.14;;;2.79;100.00
44663;BME280;30381;52.754;18.258;2023-02-12T09:24:34;102776.73;;;2.91;100.00
44663;BME280;30381;52.754;18.258;2023-02-12T09:37:08;102780.10;;;3.45;100.00
44663;BME280;30381;52.754;18.258;2023-02-12T09:39:47;102781.41;;;3.51;100.00
44663;BME280;30381;52.754;18.258;2023-02-12T09:46:17;102774.16;;;3.52;100.00
44663;BME280;30381;52.754;18.258;2023-02-12T09:50:16;102771.98;;;3.54;100.00
44663;BME280;30381;52.754;18.258;2023-02-12T09:56:59;102768.52;;;3.59;100.00
44663;BME280;30381;52.754;18.258;2023-02-12T10:02:59;102768.95;;;3.81;100.00
44663;BME280;30381;52.754;18.258;2023-02-12T10:06:26;102768.88;;;3.94;100.00
44663;BME280;30381;52.754;18.258;2023-02-12T10:12:45;102761.03;;;4.15;100.00
44663;BME280;30381;52.754;18.258;2023-02-12T15:49:28;102644.66;;;3.62;100.00
44663;BME280;30381;52.754;18.258;2023-02-12T16:20:19;102654.81;;;3.66;100.00
44663;BME280;30381;52.754;18.258;2023-02-12T16:23:56;102656.59;;;3.66;100.00
44663;BME280;30381;52.754;18.258;2023-02-12T19:44:36;102621.09;;;3.75;100.00
44663;BME280;30381;52.754;18.258;2023-02-12T19:47:03;102621.88;;;3.76;100.00
44663;BME280;30381;52.754;18.258;2023-02-12T19:49:48;102631.06;;;3.79;100.00
44663;BME280;30381;52.754;18.258;2023-02-12T19:52:48;102637.98;;;3.82;100.00
44663;BME280;30381;52.754;18.258;2023-02-12T19:55:37;102634.35;;;3.84;100.00
44663;BME280;30381;52.754;18.258;2023-02-12T21:10:50;102604.30;;;4.08;100.00
44663;BME280;30381;52.754;18.258;2023-02-12T21:17:59;102603.23;;;4.08;100.00
44663;BME280;30381;52.754;18.258;2023-02-12T21:21:47;102602.23;;;4.08;100.00
44663;BME280;30381;52.754;18.258;2023-02-12T22:07:26;102588.15;;;4.17;100.00
44663;BME280;30381;52.754;18.258;2023-02-12T22:11:29;102584.44;;;4.17;100.00
44663;BME280;30381;52.754;18.258;2023-02-12T22:15:01;102578.82;;;4.18;100.00
44663;BME280;30381;52.754;18.258;2023-02-12T22:18:06;102585.08;;;4.20;100.00
44663;BME280;30381;52.754;18.258;2023-02-12T22:21:01;102586.70;;;4.20;100.00
44663;BME280;30381;52.754;18.258;2023-02-12T22:23:55;102588.56;;;4.19;100.00
44663;BME280;30381;52.754;18.258;2023-02-12T22:26:28;102587.06;;;4.20;100.00
44663;BME280;30381;52.754;18.258;2023-02-12T22:29:30;102589.59;;;4.19;100.00
44663;BME280;30381;52.754;18.258;2023-02-12T22:32:32;102592.94;;;4.20;100.00
44663;BME280;30381;52.754;18.258;2023-02-12T22:38:11;102590.08;;;4.22;100.00
44663;BME280;30381;52.754;18.258;2023-02-12T22:41:20;102591.27;;;4.23;100.00
44663;BME280;30381;52.754;18.258;2023-02-12T22:44:04;102593.23;;;4.22;100.00
44663;BME280;30381;52.754;18.258;2023-02-12T22:46:59;102591.93;;;4.21;100.00
